Hovedside
METAR-TAF:

METAR-TAF

Lufthavner :

Teheran, Iran

breddegrad: 35-41N, lengdegrad: 051-21E, høyde over havet: 1204 m

Gjeldene værobservasjon

Denne rapporten ble laget for 29 minutter siden, klokken 19:30 UTC
Flau vind
Temperatur 32°C
Luftfuktighet 21%
Trykk 1006 hPa
Sikt 10 km eller mer
ingen skyer under 1500 m og ingen bygeskyer

METAR: OIII 131930Z 00000KT CAVOK 32/07 Q1006 A2972

Tid: 00:29 (19:59 UTC)

Varsel

Denne rapporten ble laget for 2 timer og 29 minutter siden, klokken 17:30 UTC
Varsel gyldig fra 13. klokken 18 UTC til 14. klokken 24 UTC
Vind 8 kt fra Vest-nordvest
Sikt: 8000 m
Midlertidig
fra 14. klokken 10 UTC til 14. klokken 16 UTC
Vind 16 kt fra Øst-sørøst

TAF: OIII 131730Z 1318/1424 30008KT 8000 NSC TEMPO 1410/1416 12016KT

Værobservasjoner og værvarsel for over 4000 flyplasser (METAR- og TAF-rapporter).

Tilgjengelige stasjoner er representert av de røde og gule prikkene på kartet.

Hold musepekeren over prikken for å se navnet på stasjonen.

Klikk så for å se værobservasjoner og -varsler.

For å forandre kartet kan du klikke på den grønne knappen med svart kryss for å zoome inn, på den grønne knappen med strek for å zoome ut, eller på de grønne pilene for å se tilstøtende kart.


METAR-TAF: